Ай-Петри

Карта отелей и гостиниц, располагающихся рядом с аэропортом Ай-Петри :

Ай-Петри Автономная Республика Крым 44° 29' 5.82" N, 34° 1' 39.7812" E
Ай-Петри Автономная Республика Крым 44° 29' 5.82" N, 34° 1' 39.7812" E
Код аэродрома ИКАО
HE3V
Код аэродрома RU
ХЕ3Ж
Координаты
N44.48495° E034.02772°
Превышение над уровнем моря
1304
Основная полоса
05/23
Курс магнитный
049,8/229,8
Длина основной ВПП
33
Ширина основной ВПП
23
Покрытие основной ВПП
Твёрдое
Освещение ВПП
Нет
Тип: 
Вертодром
Класс аэродрома: 
Принадлежность: 
МО
Статус: 
Действующий
Сайт: 
E-mail аэродрома: 
Страна: 
Россия
Регион: 
Автономная Республика Крым
Город: 
Дополнительная информация: 
Горный. Обнаружена с воздуха. Принадлежит ПВО (позиция РЛС) и метеостанции.

Найти трансфер

С помощью этой формы Вы можете найти трансфер из аэропорта Ай-Петри в город, аэропорт или вокзал:

Карта места

Javascript is required to view this map.

Погода в аэропортах:

Авиационная погода в Волгограде

Регион: 
Погода METAR: 
URWW 281200Z 07005MPS 9999 -SHRA BKN037CB 12/08 Q1020 R06/010070 TEMPO 1200 TSRAGR BKN004 SCT020CB
Время наблюдения
2021-09-28T12:00:00Z
Температура C
12.0
Точка росы
8.0
Направление ветра
70
Скорость ветра (узлы)
10
Метео видимость
6.21
Явления погоды
-SHRA
Условия полета
VFR
Аэропорт подробнее: 

Авиационная погода в Костанае

Регион: 
Погода METAR: 
UAUU 281200Z 04009G15MPS 9999 -RA BKN011 OVC033 04/03 Q1011 R33/290160 NOSIG RMK QFE742/0990
Время наблюдения
2021-09-28T12:00:00Z
Температура C
4.0
Точка росы
3.0
Направление ветра
40
Скорость ветра (узлы)
17
Метео видимость
6.21
Явления погоды
-RA
Условия полета
MVFR
Аэропорт подробнее: 

Авиационная погода в Нальчике

Регион: 
Погода METAR: 
URMN 281200Z 05003MPS 9999 -SHRA BKN022CB 14/09 Q1018 R24/110060 NOSIG RMK QFE727
Время наблюдения
2021-09-28T12:00:00Z
Температура C
14.0
Точка росы
9.0
Направление ветра
50
Скорость ветра (узлы)
6
Метео видимость
6.21
Явления погоды
-SHRA
Условия полета
MVFR
Аэропорт подробнее: 

Авиационная погода в Магнитогорске

Погода METAR: 
USCM 281200Z 03010MPS 4500 -SHRA BR OVC010CB 02/02 Q1016 R36/290055 TEMPO 02015MPS 1200 SHSNRA BR VV004 RMK QFE724
Время наблюдения
2021-09-28T12:00:00Z
Температура C
2.0
Точка росы
2.0
Направление ветра
30
Скорость ветра (узлы)
19
Метео видимость
2.8
Явления погоды
-SHRA BR
Условия полета
IFR
Аэропорт подробнее: